Time;durP1;ratioP1;P1;durP2;ratioP2;P2;SDS_P1;SDS_P2;PMS_P1;PMS_P2;Temp;Humidity;BMP_temperature;BMP_pressure;BME280_temperature;BME280_humidity;BME280_pressure;Samples;Min_cycle;Max_cycle;Signal;HPM_P1;HPM_P2
2021/12/31 00:03:17;;;;;;;1.70;1.60;;;14.50;99.90;;;;;;10433294;28;20208;-77
2021/12/31 00:08:24;;;;;;;1.53;1.43;;;14.50;99.90;;;;;;10408401;28;20231;-79
2021/12/31 00:13:26;;;;;;;2.00;1.90;;;14.50;99.90;;;;;;10431637;28;20217;-78
2021/12/31 00:18:28;;;;;;;2.00;1.87;;;14.50;99.90;;;;;;10424313;28;20209;-79
2021/12/31 00:23:31;;;;;;;1.77;1.67;;;14.40;99.90;;;;;;10435802;28;20296;-80
2021/12/31 00:28:33;;;;;;;2.00;1.90;;;14.50;99.90;;;;;;10437292;28;20303;-80
2021/12/31 00:33:35;;;;;;;1.80;1.70;;;14.40;99.90;;;;;;10447768;28;20272;-81
2021/12/31 00:38:39;;;;;;;1.90;1.80;;;14.40;99.90;;;;;;10416256;28;20212;-81
2021/12/31 00:43:41;;;;;;;1.57;1.47;;;14.40;99.90;;;;;;10444816;28;20325;-80
2021/12/31 00:48:43;;;;;;;1.97;1.83;;;14.40;99.90;;;;;;10482147;22;20241;-83
2021/12/31 00:53:47;;;;;;;1.93;1.53;;;14.40;99.90;;;;;;10479957;28;20684;-83
2021/12/31 00:58:49;;;;;;;2.30;2.10;;;14.30;99.90;;;;;;10495731;28;20213;-83
2021/12/31 01:03:51;;;;;;;2.63;1.90;;;14.30;99.90;;;;;;10497338;28;20627;-82
2021/12/31 01:08:55;;;;;;;2.10;1.87;;;14.20;99.90;;;;;;10503734;28;20225;-83
2021/12/31 01:14:00;;;;;;;2.03;1.90;;;14.10;99.90;;;;;;10508089;28;20201;-82
2021/12/31 01:24:25;;;;;;;2.87;1.83;;;14.10;99.90;;;;;;10486661;28;20192;-81
2021/12/31 01:29:27;;;;;;;1.90;1.80;;;14.00;99.90;;;;;;10498235;28;20231;-82
2021/12/31 01:34:30;;;;;;;2.80;2.17;;;13.90;99.90;;;;;;10506454;28;20184;-82
2021/12/31 01:39:33;;;;;;;2.23;2.10;;;13.90;99.90;;;;;;10498379;28;20207;-81
2021/12/31 01:44:39;;;;;;;1.90;1.80;;;13.80;99.90;;;;;;10497810;28;20221;-82
2021/12/31 01:49:54;;;;;;;2.33;2.20;;;13.70;99.90;;;;;;10492890;28;20231;-83
2021/12/31 01:54:57;;;;;;;2.10;2.00;;;13.60;99.90;;;;;;10492828;28;20192;-82
2021/12/31 02:00:00;;;;;;;2.17;2.00;;;13.50;99.90;;;;;;10499387;28;20306;-83
2021/12/31 02:05:04;;;;;;;1.90;1.80;;;13.50;99.90;;;;;;10505439;28;20204;-83
2021/12/31 02:10:11;;;;;;;2.27;2.17;;;13.40;99.90;;;;;;10506502;28;20231;-82
2021/12/31 02:15:14;;;;;;;2.47;2.27;;;13.30;99.90;;;;;;10506602;28;20632;-83
2021/12/31 02:20:20;;;;;;;1.93;1.83;;;13.20;99.90;;;;;;10484787;28;20228;-83
2021/12/31 02:25:24;;;;;;;2.70;2.50;;;13.10;99.90;;;;;;10502875;28;20192;-83
2021/12/31 02:30:27;;;;;;;1.67;1.63;;;13.00;99.90;;;;;;10484703;28;20304;-81
2021/12/31 02:35:31;;;;;;;2.43;2.00;;;12.90;99.90;;;;;;10504356;28;20275;-82
2021/12/31 02:40:36;;;;;;;2.67;2.47;;;12.80;99.90;;;;;;10495331;28;20687;-82
2021/12/31 02:45:40;;;;;;;2.20;2.03;;;12.80;99.90;;;;;;10495757;28;20680;-82
2021/12/31 02:50:44;;;;;;;2.30;2.10;;;12.70;99.90;;;;;;10495076;28;20688;-82
2021/12/31 02:55:48;;;;;;;2.80;1.87;;;12.60;99.90;;;;;;10492932;28;20201;-82
2021/12/31 03:00:50;;;;;;;2.40;2.20;;;12.60;99.90;;;;;;10499816;28;20275;-82
2021/12/31 03:05:55;;;;;;;2.00;1.90;;;12.50;99.90;;;;;;10498098;28;20228;-81
2021/12/31 03:11:00;;;;;;;2.97;2.57;;;12.50;99.90;;;;;;10476245;28;20216;-82
2021/12/31 03:16:03;;;;;;;2.50;2.40;;;12.40;99.90;;;;;;10482096;28;20201;-83
2021/12/31 03:21:10;;;;;;;1.90;1.80;;;12.40;99.90;;;;;;10481498;28;20211;-83
2021/12/31 03:26:12;;;;;;;2.33;2.13;;;12.30;99.90;;;;;;10491588;28;20301;-82
2021/12/31 03:31:14;;;;;;;2.50;1.90;;;12.20;99.90;;;;;;10501188;28;20258;-82
2021/12/31 03:36:18;;;;;;;3.93;2.23;;;12.10;99.90;;;;;;10494445;28;20265;-82
2021/12/31 03:41:20;;;;;;;2.47;2.27;;;12.10;99.90;;;;;;10479448;28;20196;-83
2021/12/31 03:46:22;;;;;;;7.03;1.93;;;12.00;99.90;;;;;;10494243;28;20224;-82
2021/12/31 03:51:26;;;;;;;2.40;2.20;;;11.90;99.90;;;;;;10495992;28;20404;-83
2021/12/31 03:56:31;;;;;;;2.40;2.20;;;11.80;99.90;;;;;;10477163;28;20418;-83
2021/12/31 04:01:33;;;;;;;3.90;2.10;;;11.60;99.90;;;;;;10478664;28;20215;-82
2021/12/31 04:06:37;;;;;;;3.20;2.50;;;11.40;99.90;;;;;;10482492;28;20664;-82
2021/12/31 04:11:39;;;;;;;2.40;2.30;;;11.40;99.90;;;;;;10485366;28;20567;-82
2021/12/31 04:16:41;;;;;;;2.53;2.40;;;11.30;99.90;;;;;;10476109;28;20556;-82
2021/12/31 04:21:44;;;;;;;2.30;1.93;;;11.30;99.90;;;;;;10497187;28;20196;-83
2021/12/31 04:26:46;;;;;;;2.40;2.20;;;11.30;99.90;;;;;;10473016;28;20301;-83
2021/12/31 04:31:49;;;;;;;2.00;1.90;;;11.30;99.90;;;;;;10478701;28;20257;-82
2021/12/31 04:36:52;;;;;;;2.13;2.00;;;11.30;99.90;;;;;;10494704;28;20239;-82
2021/12/31 04:41:54;;;;;;;1.97;1.87;;;11.30;99.90;;;;;;10488037;28;20207;-83
2021/12/31 04:46:56;;;;;;;2.50;2.30;;;11.20;99.90;;;;;;10490087;28;20335;-81
2021/12/31 04:52:00;;;;;;;2.20;2.10;;;11.20;99.90;;;;;;10503490;28;20656;-82
2021/12/31 04:57:03;;;;;;;2.30;2.20;;;11.10;99.90;;;;;;10488022;28;20217;-83
2021/12/31 05:02:05;;;;;;;3.30;2.20;;;11.10;99.90;;;;;;10507698;28;20218;-83
2021/12/31 05:07:08;;;;;;;2.27;2.03;;;11.10;99.90;;;;;;10508815;28;20683;-81
2021/12/31 05:12:15;;;;;;;2.47;2.27;;;11.10;99.90;;;;;;10506441;28;20649;-81
2021/12/31 05:17:17;;;;;;;5.80;1.90;;;11.00;99.90;;;;;;10486569;28;20699;-80
2021/12/31 05:22:20;;;;;;;5.23;2.10;;;11.00;99.90;;;;;;10486512;28;20209;-81
2021/12/31 05:27:22;;;;;;;2.43;2.23;;;11.10;99.90;;;;;;10501975;28;20216;-82
2021/12/31 05:32:24;;;;;;;2.80;2.60;;;11.10;99.90;;;;;;10504997;28;20199;-82
2021/12/31 05:37:28;;;;;;;2.57;2.47;;;11.10;99.90;;;;;;10518150;28;20248;-81
2021/12/31 05:42:30;;;;;;;2.30;2.20;;;11.10;99.90;;;;;;10491965;28;20196;-82
2021/12/31 05:47:32;;;;;;;2.50;2.40;;;11.10;99.90;;;;;;10487987;28;20228;-82
2021/12/31 05:52:35;;;;;;;3.90;2.37;;;11.10;99.90;;;;;;10494805;28;20227;-81
2021/12/31 05:57:37;;;;;;;2.57;2.37;;;11.10;99.90;;;;;;10498925;28;20216;-81
2021/12/31 06:02:40;;;;;;;4.50;2.40;;;11.00;99.90;;;;;;10498431;28;20301;-83
2021/12/31 06:07:43;;;;;;;2.33;2.23;;;10.90;99.90;;;;;;10495662;28;20278;-83
2021/12/31 06:12:45;;;;;;;2.40;2.20;;;10.90;99.90;;;;;;10480824;28;20273;-83
2021/12/31 06:17:47;;;;;;;3.10;2.80;;;10.90;99.90;;;;;;10498987;28;20216;-82
2021/12/31 06:22:51;;;;;;;2.70;2.50;;;11.00;99.90;;;;;;10505099;28;20287;-83
2021/12/31 06:27:53;;;;;;;2.20;2.10;;;11.10;99.90;;;;;;10505196;28;20252;-83
2021/12/31 06:32:55;;;;;;;3.00;2.37;;;11.00;99.90;;;;;;10480657;28;20686;-81
2021/12/31 06:38:01;;;;;;;2.23;2.03;;;11.00;99.90;;;;;;10487797;28;20589;-82
2021/12/31 06:43:03;;;;;;;2.90;2.30;;;11.00;99.90;;;;;;10477389;28;20196;-81
2021/12/31 06:48:06;;;;;;;4.10;2.10;;;11.00;99.90;;;;;;10521058;22;20223;-80
2021/12/31 06:53:09;;;;;;;2.23;2.13;;;11.00;99.90;;;;;;10537449;28;20200;-79
2021/12/31 06:58:11;;;;;;;2.57;2.40;;;11.00;99.90;;;;;;10534659;28;20702;-79
2021/12/31 07:03:14;;;;;;;2.10;1.93;;;11.10;99.90;;;;;;10533509;28;20283;-79
2021/12/31 07:08:18;;;;;;;2.37;2.27;;;11.10;99.90;;;;;;10515528;28;20330;-79
2021/12/31 07:13:20;;;;;;;2.37;2.27;;;11.20;99.90;;;;;;10515891;28;20204;-79
2021/12/31 07:18:23;;;;;;;3.17;2.97;;;11.30;99.90;;;;;;10517362;28;20238;-79
2021/12/31 07:23:26;;;;;;;3.60;3.30;;;11.30;99.90;;;;;;10528257;28;20196;-79
2021/12/31 07:28:28;;;;;;;3.30;3.10;;;11.50;99.90;;;;;;10517878;28;20231;-79
2021/12/31 07:33:31;;;;;;;3.53;3.10;;;11.50;99.90;;;;;;10518868;28;20659;-80
2021/12/31 07:38:36;;;;;;;3.90;3.60;;;11.50;99.90;;;;;;10528626;28;20605;-79
2021/12/31 07:43:38;;;;;;;3.80;3.40;;;11.60;99.90;;;;;;10532885;28;20207;-79
2021/12/31 07:48:40;;;;;;;3.67;3.37;;;11.60;99.90;;;;;;10534645;28;20262;-79
2021/12/31 07:53:44;;;;;;;4.50;4.10;;;11.60;99.90;;;;;;10509152;28;20575;-78
2021/12/31 07:58:47;;;;;;;4.23;3.83;;;11.60;99.90;;;;;;10526316;28;20303;-79
2021/12/31 08:03:49;;;;;;;4.30;4.00;;;11.70;99.90;;;;;;10539532;28;20454;-79
2021/12/31 08:08:52;;;;;;;5.07;4.67;;;11.70;99.90;;;;;;10514508;28;20258;-79
2021/12/31 08:13:54;;;;;;;5.03;3.83;;;11.70;99.90;;;;;;10541685;28;20205;-78
2021/12/31 08:18:56;;;;;;;7.20;4.87;;;11.70;99.90;;;;;;10520308;28;20219;-78
2021/12/31 08:24:00;;;;;;;5.40;4.90;;;11.80;99.90;;;;;;10540887;28;20203;-78
2021/12/31 08:29:02;;;;;;;5.73;5.30;;;11.80;99.90;;;;;;10527381;28;20223;-79
2021/12/31 08:34:04;;;;;;;5.23;4.80;;;11.80;99.90;;;;;;10548778;28;20222;-81
2021/12/31 08:39:09;;;;;;;6.47;5.87;;;11.80;99.90;;;;;;10537804;28;20298;-79
2021/12/31 08:44:11;;;;;;;7.50;5.60;;;11.80;99.90;;;;;;10537776;28;20625;-79
2021/12/31 08:49:14;;;;;;;5.87;5.37;;;11.90;99.90;;;;;;10537908;28;20656;-79
2021/12/31 08:54:17;;;;;;;5.93;5.43;;;11.90;99.90;;;;;;10519850;28;20647;-79
2021/12/31 08:59:20;;;;;;;6.80;6.10;;;11.90;99.90;;;;;;10544810;28;20272;-78
2021/12/31 09:04:22;;;;;;;6.73;6.13;;;12.00;99.90;;;;;;10536747;28;20276;-79
2021/12/31 09:09:25;;;;;;;5.77;5.27;;;12.00;99.90;;;;;;10542947;28;20220;-79
2021/12/31 09:14:27;;;;;;;6.87;6.30;;;12.10;99.90;;;;;;10544664;28;20218;-78
2021/12/31 09:19:29;;;;;;;6.90;6.30;;;12.10;99.90;;;;;;10550300;28;20212;-79
2021/12/31 09:24:33;;;;;;;7.33;6.30;;;12.20;99.90;;;;;;10549259;28;20196;-79
2021/12/31 09:29:35;;;;;;;7.30;6.70;;;12.20;99.90;;;;;;10549748;28;20652;-79
2021/12/31 09:34:37;;;;;;;8.07;7.37;;;12.30;99.90;;;;;;10528180;28;20189;-79
2021/12/31 09:39:41;;;;;;;6.83;6.20;;;12.30;99.90;;;;;;10533701;28;20261;-78
2021/12/31 09:44:47;;;;;;;5.97;5.43;;;12.30;99.90;;;;;;10543655;28;20391;-78
2021/12/31 09:49:50;;;;;;;7.33;6.63;;;12.30;99.90;;;;;;10544851;28;20212;-78
2021/12/31 09:54:53;;;;;;;6.57;5.97;;;12.40;99.90;;;;;;10535588;28;20204;-79
2021/12/31 10:00:01;;;;;;;6.57;5.97;;;12.40;99.90;;;;;;10515013;28;20678;-79
2021/12/31 10:05:05;;;;;;;6.07;5.57;;;12.40;99.90;;;;;;10501108;28;20258;-79
2021/12/31 10:10:13;;;;;;;5.40;5.00;;;12.40;99.90;;;;;;10524877;28;20212;-79
2021/12/31 10:15:17;;;;;;;6.90;5.60;;;12.50;99.90;;;;;;10521805;28;20193;-79
2021/12/31 10:20:47;;;;;;;5.80;5.20;;;12.50;99.90;;;;;;10530648;28;20298;-79
2021/12/31 10:26:11;;;;;;;5.03;4.63;;;12.50;99.90;;;;;;10512437;28;20208;-79
2021/12/31 10:31:22;;;;;;;6.10;5.60;;;12.50;99.90;;;;;;10504105;28;20683;-80
2021/12/31 10:36:37;;;;;;;6.53;6.00;;;12.60;99.90;;;;;;10481162;28;20222;-79
2021/12/31 10:41:41;;;;;;;6.37;5.87;;;12.60;99.90;;;;;;10503664;28;20296;-78
2021/12/31 10:47:07;;;;;;;7.10;6.50;;;12.60;99.90;;;;;;10500214;28;20230;-79
2021/12/31 10:52:10;;;;;;;6.83;6.33;;;12.60;99.90;;;;;;10500396;28;20227;-78
2021/12/31 10:57:54;;;;;;;6.90;6.30;;;12.60;99.90;;;;;;10513312;28;20219;-79
2021/12/31 11:03:02;;;;;;;6.23;5.73;;;12.70;99.90;;;;;;10521010;28;20230;-79
2021/12/31 11:08:13;;;;;;;6.20;5.70;;;12.70;99.90;;;;;;10508461;22;20256;-79
2021/12/31 11:13:18;;;;;;;6.00;5.50;;;12.70;99.90;;;;;;10498261;28;20235;-79
2021/12/31 11:18:27;;;;;;;6.93;6.33;;;12.70;99.90;;;;;;10511846;28;20244;-79
2021/12/31 11:23:38;;;;;;;6.70;6.10;;;12.80;99.90;;;;;;10513429;28;20208;-79
2021/12/31 11:28:55;;;;;;;6.43;5.90;;;12.80;99.90;;;;;;10527361;22;20219;-79
2021/12/31 11:34:17;;;;;;;6.17;5.57;;;12.90;99.90;;;;;;10512950;28;20196;-79
2021/12/31 11:39:23;;;;;;;5.23;4.83;;;12.90;99.90;;;;;;10514707;28;20207;-79
2021/12/31 11:45:04;;;;;;;5.20;4.80;;;12.90;99.90;;;;;;10501332;28;20192;-79
2021/12/31 11:50:29;;;;;;;4.97;4.60;;;13.00;99.90;;;;;;10496492;28;20232;-79
2021/12/31 11:55:43;;;;;;;4.53;4.23;;;13.00;99.90;;;;;;10488579;28;20191;-79
2021/12/31 12:00:47;;;;;;;5.13;4.73;;;13.00;99.90;;;;;;10522793;28;20211;-80
2021/12/31 12:05:49;;;;;;;5.20;4.80;;;13.10;99.90;;;;;;10513181;28;20583;-79
2021/12/31 12:10:51;;;;;;;5.27;4.87;;;13.20;99.90;;;;;;10512098;28;20235;-79
2021/12/31 12:15:55;;;;;;;4.60;4.30;;;13.20;99.90;;;;;;10527460;28;20199;-79
2021/12/31 12:20:57;;;;;;;4.00;3.80;;;13.20;99.90;;;;;;10512695;28;20223;-78
2021/12/31 12:26:00;;;;;;;4.27;4.00;;;13.20;99.90;;;;;;10512776;28;20211;-79
2021/12/31 12:31:16;;;;;;;4.10;3.80;;;13.30;99.90;;;;;;10513035;28;20236;-79
2021/12/31 12:36:20;;;;;;;4.30;4.00;;;13.30;99.90;;;;;;10515132;28;20203;-79
2021/12/31 12:41:27;;;;;;;4.43;4.03;;;13.30;99.90;;;;;;10508856;28;20221;-79
2021/12/31 12:51:39;;;;;;;4.43;4.13;;;13.40;99.90;;;;;;10401969;28;20214;-80
2021/12/31 12:56:41;;;;;;;4.10;3.90;;;13.60;99.90;;;;;;10400599;28;20293;-80
2021/12/31 13:01:45;;;;;;;3.50;3.30;;;13.70;99.90;;;;;;10401490;28;20201;-78
2021/12/31 13:06:59;;;;;;;3.47;3.17;;;13.80;99.90;;;;;;10417635;28;20217;-79
2021/12/31 13:12:02;;;;;;;3.57;3.37;;;13.90;99.90;;;;;;10408027;28;20272;-81
2021/12/31 13:17:05;;;;;;;3.50;3.30;;;13.90;99.90;;;;;;10397438;28;20226;-80
2021/12/31 13:22:10;;;;;;;3.73;3.43;;;14.00;99.90;;;;;;10402124;28;20252;-80
2021/12/31 13:27:16;;;;;;;4.20;3.80;;;14.00;99.90;;;;;;10397142;28;20214;-79
2021/12/31 13:32:21;;;;;;;3.50;3.30;;;14.10;99.90;;;;;;10417844;28;20241;-80
2021/12/31 13:37:30;;;;;;;4.03;3.73;;;14.20;99.90;;;;;;10415851;28;20309;-79
2021/12/31 13:42:32;;;;;;;3.60;3.40;;;14.20;99.90;;;;;;10418028;28;20309;-79
2021/12/31 13:47:34;;;;;;;4.00;3.73;;;14.20;99.90;;;;;;10416816;28;20242;-79
2021/12/31 13:52:45;;;;;;;3.90;3.60;;;14.20;99.90;;;;;;10412023;28;20597;-79
2021/12/31 13:57:56;;;;;;;3.93;3.73;;;14.20;99.90;;;;;;10418607;28;20221;-79
2021/12/31 14:03:10;;;;;;;2.90;2.70;;;14.10;99.90;;;;;;10390462;28;20249;-79
2021/12/31 14:08:29;;;;;;;4.43;3.77;;;14.00;99.90;;;;;;10377879;28;20220;-78
2021/12/31 14:13:32;;;;;;;3.53;3.33;;;14.00;99.90;;;;;;10383950;28;20195;-78
2021/12/31 14:18:34;;;;;;;3.70;3.50;;;14.00;99.90;;;;;;10386011;28;20587;-79
2021/12/31 14:23:38;;;;;;;4.27;3.87;;;14.00;99.90;;;;;;10400424;28;20567;-78
2021/12/31 14:28:40;;;;;;;2.93;2.80;;;14.00;99.90;;;;;;10405810;28;20217;-79
2021/12/31 14:33:42;;;;;;;3.30;3.10;;;14.00;99.90;;;;;;10415570;28;20202;-80
2021/12/31 14:39:14;;;;;;;3.50;2.80;;;14.00;99.90;;;;;;10412085;28;20238;-79
2021/12/31 14:44:16;;;;;;;3.33;3.13;;;13.90;99.90;;;;;;10404582;28;20288;-80
2021/12/31 14:49:18;;;;;;;3.27;3.07;;;13.90;99.90;;;;;;10428212;28;20229;-79
2021/12/31 14:54:22;;;;;;;3.10;2.90;;;13.80;99.90;;;;;;10414043;28;20722;-80
2021/12/31 14:59:24;;;;;;;3.70;3.50;;;13.70;99.90;;;;;;10427108;28;20218;-79
2021/12/31 15:04:26;;;;;;;3.50;3.30;;;13.60;99.90;;;;;;10430380;28;20229;-79
2021/12/31 15:09:30;;;;;;;3.33;3.13;;;13.40;99.90;;;;;;10411037;28;20555;-79
2021/12/31 15:14:32;;;;;;;2.73;2.63;;;13.30;99.90;;;;;;10411246;28;20300;-79
2021/12/31 15:19:34;;;;;;;3.20;3.00;;;13.20;99.90;;;;;;10416233;28;20228;-79
2021/12/31 15:24:38;;;;;;;3.07;2.87;;;13.00;99.90;;;;;;10412764;28;20212;-79
2021/12/31 15:29:41;;;;;;;3.57;3.37;;;12.90;99.90;;;;;;10415870;28;20297;-79
2021/12/31 15:34:43;;;;;;;3.80;3.60;;;12.80;99.90;;;;;;10410081;28;20280;-78
2021/12/31 15:39:46;;;;;;;4.27;3.97;;;12.70;99.90;;;;;;10426064;28;20533;-79
2021/12/31 15:44:48;;;;;;;4.20;3.90;;;12.60;99.90;;;;;;10412770;28;20277;-80
2021/12/31 15:49:50;;;;;;;6.50;3.90;;;12.50;99.90;;;;;;10428931;28;20257;-79
2021/12/31 15:54:54;;;;;;;4.73;4.43;;;12.30;99.90;;;;;;10415580;28;20208;-80
2021/12/31 15:59:56;;;;;;;3.60;3.30;;;12.30;99.90;;;;;;10410277;28;20224;-79
2021/12/31 16:04:58;;;;;;;3.70;3.50;;;12.20;99.90;;;;;;10409719;28;20649;-80
2021/12/31 16:10:02;;;;;;;3.93;3.63;;;12.10;99.90;;;;;;10412598;28;20292;-80
2021/12/31 16:15:04;;;;;;;4.50;4.20;;;12.00;99.90;;;;;;10429181;28;20202;-78
2021/12/31 16:20:08;;;;;;;5.93;5.20;;;12.00;99.90;;;;;;10414132;28;20228;-80
2021/12/31 16:25:12;;;;;;;9.50;8.47;;;12.00;99.90;;;;;;10410728;28;20281;-78
2021/12/31 16:30:15;;;;;;;12.50;11.17;;;12.00;99.90;;;;;;10411557;28;20701;-79
2021/12/31 16:35:17;;;;;;;16.60;14.80;;;11.90;99.90;;;;;;10399291;28;20228;-79
2021/12/31 16:40:21;;;;;;;8.30;6.60;;;11.90;99.90;;;;;;10421783;28;20276;-80
2021/12/31 16:45:23;;;;;;;10.33;9.53;;;11.90;99.90;;;;;;10425815;28;20223;-80
2021/12/31 16:50:26;;;;;;;27.33;24.40;;;11.90;99.90;;;;;;10415889;28;20280;-80
2021/12/31 16:55:29;;;;;;;25.90;19.47;;;11.90;99.90;;;;;;10421865;28;20194;-79
2021/12/31 17:00:31;;;;;;;16.63;10.40;;;11.80;99.90;;;;;;10421688;28;20665;-80
2021/12/31 17:05:34;;;;;;;9.10;8.20;;;11.80;99.90;;;;;;10424763;28;20212;-80
2021/12/31 17:10:38;;;;;;;8.40;7.70;;;11.80;99.90;;;;;;10423535;28;20214;-79
2021/12/31 17:15:41;;;;;;;8.17;7.47;;;11.80;99.90;;;;;;10419497;28;20296;-80
2021/12/31 17:20:43;;;;;;;10.83;9.90;;;11.80;99.90;;;;;;10419147;28;21414;-78
2021/12/31 17:25:47;;;;;;;14.30;12.83;;;11.80;99.90;;;;;;10411209;28;20579;-78
2021/12/31 17:30:49;;;;;;;12.10;10.90;;;11.80;99.90;;;;;;10420694;28;20226;-80
2021/12/31 17:35:51;;;;;;;16.10;14.40;;;11.80;99.90;;;;;;10433724;28;20564;-80
2021/12/31 17:40:55;;;;;;;20.83;18.53;;;11.80;99.90;;;;;;10410626;28;20219;-79
2021/12/31 17:45:59;;;;;;;14.60;13.07;;;11.80;99.90;;;;;;10388311;28;20198;-79
2021/12/31 17:51:01;;;;;;;17.63;15.93;;;11.90;99.90;;;;;;10403452;28;20229;-80
2021/12/31 17:56:05;;;;;;;11.27;10.13;;;11.90;99.90;;;;;;10398543;28;20209;-80
2021/12/31 18:01:07;;;;;;;40.67;36.90;;;11.90;99.90;;;;;;10423543;28;20225;-79
2021/12/31 18:06:09;;;;;;;29.53;26.60;;;11.80;99.90;;;;;;10418424;28;20202;-78
2021/12/31 18:11:13;;;;;;;22.83;20.63;;;11.80;99.90;;;;;;10387088;28;20222;-80
2021/12/31 18:16:16;;;;;;;24.43;22.13;;;11.70;99.90;;;;;;10408001;28;20289;-80
2021/12/31 18:21:19;;;;;;;14.27;12.90;;;11.60;99.90;;;;;;10412929;28;20202;-80
2021/12/31 18:26:22;;;;;;;10.40;9.50;;;11.50;99.90;;;;;;10405112;28;20193;-80
2021/12/31 18:31:25;;;;;;;9.10;8.30;;;11.40;99.90;;;;;;10403689;28;20715;-80
2021/12/31 18:36:27;;;;;;;8.60;7.90;;;11.30;99.90;;;;;;10391288;28;20208;-80
2021/12/31 18:41:31;;;;;;;7.10;6.50;;;11.20;99.90;;;;;;10397266;28;20197;-79
2021/12/31 18:46:40;;;;;;;7.13;6.43;;;11.20;99.90;;;;;;10409567;28;20209;-81
2021/12/31 18:51:42;;;;;;;9.80;8.90;;;11.10;99.90;;;;;;10440959;22;20255;-82
2021/12/31 18:56:46;;;;;;;9.43;8.37;;;11.00;99.90;;;;;;10466876;28;20237;-80
2021/12/31 19:01:48;;;;;;;10.07;9.13;;;10.90;99.90;;;;;;10480726;28;20212;-82
2021/12/31 19:06:50;;;;;;;9.20;8.30;;;10.90;99.90;;;;;;10470170;28;20228;-82
2021/12/31 19:11:54;;;;;;;8.73;7.93;;;11.00;99.90;;;;;;10457082;28;20253;-82
2021/12/31 19:16:56;;;;;;;10.60;9.60;;;11.00;99.90;;;;;;10450669;28;20282;-82
2021/12/31 19:21:58;;;;;;;13.97;12.57;;;11.00;99.90;;;;;;10470666;28;20216;-81
2021/12/31 19:27:01;;;;;;;13.43;12.10;;;11.00;99.90;;;;;;10498162;28;20196;-83
2021/12/31 19:32:04;;;;;;;11.90;10.80;;;10.90;99.90;;;;;;10499044;28;20225;-83
2021/12/31 19:37:06;;;;;;;9.83;8.93;;;10.90;99.90;;;;;;10490460;28;20208;-82
2021/12/31 19:42:10;;;;;;;9.57;8.67;;;10.80;99.90;;;;;;10509382;28;20221;-82
2021/12/31 19:47:12;;;;;;;8.17;7.37;;;10.80;99.90;;;;;;10473375;28;20208;-82
2021/12/31 19:52:14;;;;;;;15.20;11.00;;;10.70;99.90;;;;;;10492379;28;20225;-84
2021/12/31 19:57:18;;;;;;;7.80;7.10;;;10.70;99.90;;;;;;10471047;28;20192;-84
2021/12/31 20:02:20;;;;;;;8.33;7.57;;;10.60;99.90;;;;;;10457938;28;20255;-83
2021/12/31 20:07:22;;;;;;;10.87;9.87;;;10.60;99.90;;;;;;10472604;28;20193;-83
2021/12/31 20:12:25;;;;;;;22.60;20.50;;;10.60;99.90;;;;;;10462858;28;20221;-82
2021/12/31 20:17:28;;;;;;;21.27;18.97;;;10.60;99.90;;;;;;10482815;28;20208;-81
2021/12/31 20:22:30;;;;;;;14.37;12.97;;;10.60;99.90;;;;;;10459957;28;20704;-82
2021/12/31 20:27:34;;;;;;;12.87;11.67;;;10.50;99.90;;;;;;10467302;28;20255;-82
2021/12/31 20:32:37;;;;;;;13.33;12.03;;;10.50;99.90;;;;;;10470113;28;20681;-83
2021/12/31 20:37:39;;;;;;;10.97;9.30;;;10.50;99.90;;;;;;10503566;28;20198;-83
2021/12/31 20:42:43;;;;;;;9.63;8.73;;;10.50;99.90;;;;;;10467480;28;20224;-81
2021/12/31 20:47:46;;;;;;;8.43;7.03;;;10.50;99.90;;;;;;10451657;28;20617;-80
2021/12/31 20:52:48;;;;;;;10.10;8.70;;;10.50;99.90;;;;;;10474868;28;20278;-80
2021/12/31 20:57:52;;;;;;;9.80;8.80;;;10.60;99.90;;;;;;10491130;28;20193;-81
2021/12/31 21:02:54;;;;;;;10.43;9.47;;;10.60;99.90;;;;;;10487738;28;20299;-82
2021/12/31 21:07:56;;;;;;;13.37;11.73;;;10.60;99.90;;;;;;10487276;28;20288;-81
2021/12/31 21:13:00;;;;;;;15.03;12.87;;;10.70;99.90;;;;;;10474378;28;20238;-82
2021/12/31 21:18:03;;;;;;;12.60;11.40;;;10.90;99.90;;;;;;10486475;28;20208;-81
2021/12/31 21:23:06;;;;;;;17.30;15.80;;;10.90;99.90;;;;;;10471657;28;20323;-81
2021/12/31 21:28:09;;;;;;;17.10;15.30;;;11.00;99.90;;;;;;10468155;28;20201;-82
2021/12/31 21:33:12;;;;;;;17.13;15.43;;;11.00;99.90;;;;;;10471115;28;20228;-80
2021/12/31 21:38:15;;;;;;;16.07;14.40;;;11.10;99.90;;;;;;10488434;28;20292;-81
2021/12/31 21:43:21;;;;;;;12.30;11.20;;;11.10;99.90;;;;;;10478766;28;20213;-80
2021/12/31 21:48:23;;;;;;;14.17;12.50;;;11.10;99.90;;;;;;10479697;28;20646;-80
2021/12/31 21:53:26;;;;;;;14.10;12.67;;;11.10;99.90;;;;;;10473775;28;20274;-80
2021/12/31 21:58:29;;;;;;;14.63;13.13;;;11.20;99.90;;;;;;10485690;28;20729;-82
2021/12/31 22:03:31;;;;;;;16.90;14.93;;;11.20;99.90;;;;;;10484541;28;20209;-82
2021/12/31 22:08:34;;;;;;;18.17;16.20;;;11.30;99.90;;;;;;10503115;28;20672;-82
2021/12/31 22:13:38;;;;;;;16.37;14.70;;;11.40;99.90;;;;;;10493286;28;20228;-82
2021/12/31 22:18:41;;;;;;;15.47;13.97;;;11.30;99.90;;;;;;10474163;28;20192;-81
2021/12/31 22:23:43;;;;;;;16.67;14.97;;;11.20;99.90;;;;;;10497931;28;20243;-82
2021/12/31 22:28:46;;;;;;;16.27;14.73;;;11.00;99.90;;;;;;10499996;28;20208;-82
2021/12/31 22:33:48;;;;;;;13.80;12.60;;;11.00;99.90;;;;;;10495141;28;20217;-82
2021/12/31 22:38:51;;;;;;;12.80;11.50;;;11.00;99.90;;;;;;10482165;28;20201;-81
2021/12/31 22:43:54;;;;;;;10.80;9.90;;;11.00;99.90;;;;;;10490705;28;20225;-81
2021/12/31 22:48:56;;;;;;;10.33;9.27;;;10.90;99.90;;;;;;10485322;28;20670;-82
2021/12/31 22:53:59;;;;;;;13.23;12.00;;;10.90;99.90;;;;;;10507867;28;20208;-82
2021/12/31 22:59:02;;;;;;;15.77;14.33;;;10.90;99.90;;;;;;10492744;28;20555;-83
2021/12/31 23:04:04;;;;;;;25.43;23.03;;;10.90;99.90;;;;;;10515953;28;20629;-83
2021/12/31 23:09:06;;;;;;;49.27;44.23;;;10.90;99.90;;;;;;10485103;28;20197;-82
2021/12/31 23:14:11;;;;;;;51.10;45.60;;;10.90;99.90;;;;;;10482406;28;20266;-82
2021/12/31 23:19:13;;;;;;;32.80;29.30;;;11.00;99.90;;;;;;10460985;28;20212;-82
2021/12/31 23:24:15;;;;;;;20.43;18.23;;;11.00;99.90;;;;;;10460090;28;20655;-81
2021/12/31 23:29:19;;;;;;;28.87;26.00;;;10.90;99.90;;;;;;10469253;28;20196;-82
2021/12/31 23:34:21;;;;;;;28.13;25.33;;;10.90;99.90;;;;;;10459030;28;20267;-83
2021/12/31 23:39:25;;;;;;;29.07;26.33;;;10.90;99.90;;;;;;10478925;28;20228;-81
2021/12/31 23:44:29;;;;;;;36.57;32.97;;;10.80;99.90;;;;;;10499458;28;20271;-82
2021/12/31 23:49:31;;;;;;;40.57;36.57;;;10.80;99.90;;;;;;10495941;28;20698;-81
2021/12/31 23:54:35;;;;;;;50.87;45.50;;;10.90;99.90;;;;;;10488044;28;20578;-83
2021/12/31 23:59:41;;;;;;;50.40;45.30;;;10.90;99.90;;;;;;10469201;28;20204;-82
